sensor_id;sensor_type;location;lat;lon;timestamp;pressure;altitude;pressure_sealevel;temperature;humidity
46347;BME280;32057;47.830;19.046;2023-04-02T00:00:30;99186.38;;;5.96;100.00
46347;BME280;32057;47.830;19.046;2023-04-02T00:03:04;99184.16;;;5.73;100.00
46347;BME280;32057;47.830;19.046;2023-04-02T00:08:03;99185.63;;;5.62;100.00
46347;BME280;32057;47.830;19.046;2023-04-02T00:10:49;99184.72;;;5.60;100.00
46347;BME280;32057;47.830;19.046;2023-04-02T00:15:46;99191.97;;;5.38;100.00
46347;BME280;32057;47.830;19.046;2023-04-02T00:18:20;99201.47;;;5.03;100.00
46347;BME280;32057;47.830;19.046;2023-04-02T00:20:48;99188.63;;;5.05;100.00
46347;BME280;32057;47.830;19.046;2023-04-02T00:23:15;99202.28;;;5.01;100.00
46347;BME280;32057;47.830;19.046;2023-04-02T00:25:43;99190.84;;;4.89;100.00
46347;BME280;32057;47.830;19.046;2023-04-02T00:28:21;99202.63;;;4.81;100.00
46347;BME280;32057;47.830;19.046;2023-04-02T00:30:53;99200.00;;;4.78;100.00
46347;BME280;32057;47.830;19.046;2023-04-02T00:33:21;99195.16;;;4.90;100.00
46347;BME280;32057;47.830;19.046;2023-04-02T00:35:49;99206.03;;;4.78;100.00
46347;BME280;32057;47.830;19.046;2023-04-02T00:38:33;99211.97;;;4.76;100.00
46347;BME280;32057;47.830;19.046;2023-04-02T00:41:02;99212.03;;;4.79;100.00
46347;BME280;32057;47.830;19.046;2023-04-02T00:43:30;99210.91;;;4.68;100.00
46347;BME280;32057;47.830;19.046;2023-04-02T00:46:00;99210.81;;;4.65;100.00
46347;BME280;32057;47.830;19.046;2023-04-02T00:50:58;99214.63;;;4.79;100.00
46347;BME280;32057;47.830;19.046;2023-04-02T00:53:27;99218.81;;;4.74;100.00
46347;BME280;32057;47.830;19.046;2023-04-02T00:55:56;99216.28;;;4.75;100.00
46347;BME280;32057;47.830;19.046;2023-04-02T00:58:32;99216.97;;;4.70;100.00
46347;BME280;32057;47.830;19.046;2023-04-02T01:00:59;99218.66;;;4.68;100.00
46347;BME280;32057;47.830;19.046;2023-04-02T01:06:14;99220.31;;;4.67;100.00
46347;BME280;32057;47.830;19.046;2023-04-02T01:25:19;99224.16;;;4.83;100.00
46347;BME280;32057;47.830;19.046;2023-04-02T01:27:58;99228.75;;;4.93;100.00
46347;BME280;32057;47.830;19.046;2023-04-02T01:30:30;99236.31;;;4.87;100.00
46347;BME280;32057;47.830;19.046;2023-04-02T01:32:55;99236.00;;;4.75;100.00
46347;BME280;32057;47.830;19.046;2023-04-02T01:35:22;99242.34;;;4.54;100.00
46347;BME280;32057;47.830;19.046;2023-04-02T01:37:58;99246.41;;;4.46;100.00
46347;BME280;32057;47.830;19.046;2023-04-02T01:40:44;99252.72;;;4.26;100.00
46347;BME280;32057;47.830;19.046;2023-04-02T01:43:22;99256.06;;;4.23;100.00
46347;BME280;32057;47.830;19.046;2023-04-02T01:45:52;99258.78;;;4.28;100.00
46347;BME280;32057;47.830;19.046;2023-04-02T01:48:21;99265.13;;;4.41;100.00
46347;BME280;32057;47.830;19.046;2023-04-02T01:50:50;99259.81;;;4.34;100.00
46347;BME280;32057;47.830;19.046;2023-04-02T01:53:18;99259.03;;;4.37;100.00
46347;BME280;32057;47.830;19.046;2023-04-02T01:56:03;99264.50;;;4.48;100.00
46347;BME280;32057;47.830;19.046;2023-04-02T01:58:31;99271.31;;;4.47;100.00
46347;BME280;32057;47.830;19.046;2023-04-02T02:01:01;99269.75;;;4.52;100.00
46347;BME280;32057;47.830;19.046;2023-04-02T02:03:28;99268.25;;;4.61;100.00
46347;BME280;32057;47.830;19.046;2023-04-02T02:05:55;99272.53;;;4.60;100.00
46347;BME280;32057;47.830;19.046;2023-04-02T02:08:37;99273.41;;;4.61;100.00
46347;BME280;32057;47.830;19.046;2023-04-02T02:11:04;99272.50;;;4.58;100.00
46347;BME280;32057;47.830;19.046;2023-04-02T02:13:30;99277.59;;;4.57;100.00
46347;BME280;32057;47.830;19.046;2023-04-02T02:16:00;99279.31;;;4.56;100.00
46347;BME280;32057;47.830;19.046;2023-04-02T02:18:28;99270.75;;;4.57;100.00
46347;BME280;32057;47.830;19.046;2023-04-02T02:20:56;99276.09;;;4.64;100.00
46347;BME280;32057;47.830;19.046;2023-04-02T02:23:23;99273.88;;;4.79;100.00
46347;BME280;32057;47.830;19.046;2023-04-02T02:25:48;99273.59;;;5.00;100.00
46347;BME280;32057;47.830;19.046;2023-04-02T02:28:24;99262.81;;;5.16;100.00
46347;BME280;32057;47.830;19.046;2023-04-02T02:31:06;99268.41;;;5.35;100.00
46347;BME280;32057;47.830;19.046;2023-04-02T02:33:48;99268.69;;;5.46;100.00
46347;BME280;32057;47.830;19.046;2023-04-02T02:36:21;99268.03;;;5.54;100.00
46347;BME280;32057;47.830;19.046;2023-04-02T02:38:54;99268.22;;;5.62;100.00
46347;BME280;32057;47.830;19.046;2023-04-02T02:41:40;99269.22;;;5.69;100.00
46347;BME280;32057;47.830;19.046;2023-04-02T02:46:43;99266.88;;;5.79;100.00
46347;BME280;32057;47.830;19.046;2023-04-02T02:49:15;99261.13;;;5.93;100.00
46347;BME280;32057;47.830;19.046;2023-04-02T02:52:15;99270.13;;;6.07;100.00
46347;BME280;32057;47.830;19.046;2023-04-02T02:54:48;99267.78;;;6.20;100.00
46347;BME280;32057;47.830;19.046;2023-04-02T02:57:22;99265.44;;;6.32;100.00
46347;BME280;32057;47.830;19.046;2023-04-02T02:59:50;99269.16;;;6.46;100.00
46347;BME280;32057;47.830;19.046;2023-04-02T03:02:17;99268.50;;;6.56;100.00
46347;BME280;32057;47.830;19.046;2023-04-02T03:04:48;99266.00;;;6.60;100.00
46347;BME280;32057;47.830;19.046;2023-04-02T03:07:15;99269.50;;;6.65;100.00
46347;BME280;32057;47.830;19.046;2023-04-02T03:15:48;99258.50;;;6.75;100.00
46347;BME280;32057;47.830;19.046;2023-04-02T03:24:03;99269.34;;;7.03;100.00
46347;BME280;32057;47.830;19.046;2023-04-02T03:26:36;99269.34;;;7.03;100.00
46347;BME280;32057;47.830;19.046;2023-04-02T03:29:07;99271.94;;;7.03;100.00
46347;BME280;32057;47.830;19.046;2023-04-02T03:31:39;99269.44;;;7.07;100.00
46347;BME280;32057;47.830;19.046;2023-04-02T03:37:25;99266.84;;;7.09;100.00
46347;BME280;32057;47.830;19.046;2023-04-02T03:40:01;99272.94;;;7.11;100.00
46347;BME280;32057;47.830;19.046;2023-04-02T03:42:44;99269.59;;;7.15;100.00
46347;BME280;32057;47.830;19.046;2023-04-02T03:45:19;99268.72;;;7.16;100.00
46347;BME280;32057;47.830;19.046;2023-04-02T03:47:51;99272.19;;;7.18;100.00
46347;BME280;32057;47.830;19.046;2023-04-02T03:50:29;99267.91;;;7.20;100.00
46347;BME280;32057;47.830;19.046;2023-04-02T03:52:58;99267.09;;;7.21;100.00
46347;BME280;32057;47.830;19.046;2023-04-02T03:55:26;99265.41;;;7.23;100.00
46347;BME280;32057;47.830;19.046;2023-04-02T04:03:11;99263.53;;;7.16;100.00
46347;BME280;32057;47.830;19.046;2023-04-02T04:05:50;99273.00;;;7.14;100.00
46347;BME280;32057;47.830;19.046;2023-04-02T04:08:20;99275.59;;;7.14;100.00
46347;BME280;32057;47.830;19.046;2023-04-02T04:10:56;99279.03;;;7.13;100.00
46347;BME280;32057;47.830;19.046;2023-04-02T04:13:49;99279.81;;;7.10;100.00
46347;BME280;32057;47.830;19.046;2023-04-02T04:16:28;99284.19;;;7.13;100.00
46347;BME280;32057;47.830;19.046;2023-04-02T04:19:05;99291.03;;;7.11;100.00
46347;BME280;32057;47.830;19.046;2023-04-02T04:21:36;99289.31;;;7.10;100.00
46347;BME280;32057;47.830;19.046;2023-04-02T04:24:04;99290.91;;;7.02;100.00
46347;BME280;32057;47.830;19.046;2023-04-02T04:26:47;99291.69;;;6.97;100.00
46347;BME280;32057;47.830;19.046;2023-04-02T04:29:55;99297.66;;;6.93;100.00
46347;BME280;32057;47.830;19.046;2023-04-02T04:35:17;99302.94;;;7.00;100.00
46347;BME280;32057;47.830;19.046;2023-04-02T04:37:45;99305.41;;;6.93;100.00
46347;BME280;32057;47.830;19.046;2023-04-02T04:40:27;99305.38;;;6.92;100.00
46347;BME280;32057;47.830;19.046;2023-04-02T04:42:56;99309.69;;;6.93;100.00
46347;BME280;32057;47.830;19.046;2023-04-02T04:51:02;99318.53;;;7.04;100.00
46347;BME280;32057;47.830;19.046;2023-04-02T04:53:29;99310.94;;;7.13;100.00
46347;BME280;32057;47.830;19.046;2023-04-02T04:55:57;99311.06;;;7.21;100.00
46347;BME280;32057;47.830;19.046;2023-04-02T04:58:47;99319.06;;;7.36;100.00
46347;BME280;32057;47.830;19.046;2023-04-02T05:01:27;99315.13;;;7.57;100.00
46347;BME280;32057;47.830;19.046;2023-04-02T05:04:03;99308.56;;;7.79;100.00
46347;BME280;32057;47.830;19.046;2023-04-02T05:06:40;99316.06;;;8.22;100.00
46347;BME280;32057;47.830;19.046;2023-04-02T05:12:25;99321.38;;;9.03;100.00
46347;BME280;32057;47.830;19.046;2023-04-02T05:18:24;99324.44;;;9.53;100.00
46347;BME280;32057;47.830;19.046;2023-04-02T05:20:32;99314.94;;;9.57;100.00
46347;BME280;32057;47.830;19.046;2023-04-02T05:23:04;99320.16;;;9.60;100.00
46347;BME280;32057;47.830;19.046;2023-04-02T05:25:35;99325.66;;;10.03;100.00
46347;BME280;32057;47.830;19.046;2023-04-02T05:28:25;99320.81;;;10.65;100.00
46347;BME280;32057;47.830;19.046;2023-04-02T05:31:02;99317.31;;;10.61;100.00
46347;BME280;32057;47.830;19.046;2023-04-02T05:33:32;99321.56;;;10.34;100.00
46347;BME280;32057;47.830;19.046;2023-04-02T05:36:07;99325.63;;;9.95;100.00
46347;BME280;32057;47.830;19.046;2023-04-02T05:38:36;99322.19;;;10.01;100.00
46347;BME280;32057;47.830;19.046;2023-04-02T05:43:38;99324.44;;;11.31;96.76
46347;BME280;32057;47.830;19.046;2023-04-02T05:46:14;99327.91;;;11.47;93.94
46347;BME280;32057;47.830;19.046;2023-04-02T05:48:41;99330.53;;;12.03;91.45
46347;BME280;32057;47.830;19.046;2023-04-02T05:54:22;99332.19;;;10.98;96.88
46347;BME280;32057;47.830;19.046;2023-04-02T05:56:54;99336.19;;;10.25;100.00
46347;BME280;32057;47.830;19.046;2023-04-02T05:59:25;99344.00;;;10.25;100.00
46347;BME280;32057;47.830;19.046;2023-04-02T06:08:04;99344.09;;;10.37;100.00
46347;BME280;32057;47.830;19.046;2023-04-02T06:10:07;99344.97;;;10.39;100.00
46347;BME280;32057;47.830;19.046;2023-04-02T06:12:44;99353.72;;;10.58;100.00
46347;BME280;32057;47.830;19.046;2023-04-02T06:15:15;99351.97;;;10.54;100.00
46347;BME280;32057;47.830;19.046;2023-04-02T06:20:18;99354.69;;;10.72;100.00
46347;BME280;32057;47.830;19.046;2023-04-02T06:22:47;99352.09;;;10.83;100.00
46347;BME280;32057;47.830;19.046;2023-04-02T06:27:48;99354.75;;;11.02;99.60
46347;BME280;32057;47.830;19.046;2023-04-02T06:30:35;99354.78;;;11.11;99.35
46347;BME280;32057;47.830;19.046;2023-04-02T06:33:03;99356.53;;;11.18;98.71
46347;BME280;32057;47.830;19.046;2023-04-02T06:35:28;99357.44;;;11.39;99.84
46347;BME280;32057;47.830;19.046;2023-04-02T06:37:56;99362.66;;;11.48;97.27
46347;BME280;32057;47.830;19.046;2023-04-02T06:45:45;99360.06;;;11.77;94.49
46347;BME280;32057;47.830;19.046;2023-04-02T06:48:16;99358.34;;;12.04;96.55
46347;BME280;32057;47.830;19.046;2023-04-02T06:50:48;99352.22;;;12.31;94.51
46347;BME280;32057;47.830;19.046;2023-04-02T06:55:50;99351.25;;;12.52;92.03
46347;BME280;32057;47.830;19.046;2023-04-02T06:58:18;99366.03;;;12.68;90.59
46347;BME280;32057;47.830;19.046;2023-04-02T07:00:45;99359.91;;;12.72;89.80
46347;BME280;32057;47.830;19.046;2023-04-02T07:05:40;99357.25;;;12.86;88.09
46347;BME280;32057;47.830;19.046;2023-04-02T07:08:05;99362.50;;;12.74;88.51
46347;BME280;32057;47.830;19.046;2023-04-02T07:10:32;99366.03;;;12.61;89.67
46347;BME280;32057;47.830;19.046;2023-04-02T07:12:58;99372.19;;;12.37;88.75
46347;BME280;32057;47.830;19.046;2023-04-02T07:15:23;99362.59;;;12.43;87.78
46347;BME280;32057;47.830;19.046;2023-04-02T07:17:49;99368.63;;;12.64;88.87
46347;BME280;32057;47.830;19.046;2023-04-02T07:20:27;99362.53;;;12.63;87.70
46347;BME280;32057;47.830;19.046;2023-04-02T07:22:53;99366.13;;;12.33;87.88
46347;BME280;32057;47.830;19.046;2023-04-02T07:25:19;99367.81;;;12.49;87.88
46347;BME280;32057;47.830;19.046;2023-04-02T07:27:45;99376.53;;;12.30;87.81
46347;BME280;32057;47.830;19.046;2023-04-02T07:30:10;99368.78;;;11.98;89.79
46347;BME280;32057;47.830;19.046;2023-04-02T07:32:36;99370.44;;;12.35;90.09
46347;BME280;32057;47.830;19.046;2023-04-02T07:35:03;99372.97;;;12.68;88.26
46347;BME280;32057;47.830;19.046;2023-04-02T07:37:29;99367.69;;;12.86;86.66
46347;BME280;32057;47.830;19.046;2023-04-02T07:39:55;99379.81;;;12.92;84.96
46347;BME280;32057;47.830;19.046;2023-04-02T07:42:22;99384.06;;;13.18;84.98
46347;BME280;32057;47.830;19.046;2023-04-02T07:44:47;99383.97;;;13.39;82.99
46347;BME280;32057;47.830;19.046;2023-04-02T07:47:13;99381.31;;;13.45;82.02
46347;BME280;32057;47.830;19.046;2023-04-02T07:49:38;99386.44;;;13.62;82.40
46347;BME280;32057;47.830;19.046;2023-04-02T07:52:04;99382.66;;;13.95;82.06
46347;BME280;32057;47.830;19.046;2023-04-02T07:54:29;99378.06;;;14.22;81.72
46347;BME280;32057;47.830;19.046;2023-04-02T07:56:55;99373.56;;;14.38;78.91
46347;BME280;32057;47.830;19.046;2023-04-02T07:59:21;99376.69;;;14.71;81.39
46347;BME280;32057;47.830;19.046;2023-04-02T08:01:46;99385.25;;;14.85;77.66
46347;BME280;32057;47.830;19.046;2023-04-02T08:04:20;99386.50;;;14.50;75.24
46347;BME280;32057;47.830;19.046;2023-04-02T08:06:47;99392.19;;;14.04;77.71
46347;BME280;32057;47.830;19.046;2023-04-02T08:09:14;99392.03;;;14.20;78.58
46347;BME280;32057;47.830;19.046;2023-04-02T08:11:40;99380.50;;;14.39;77.97
46347;BME280;32057;47.830;19.046;2023-04-02T08:14:09;99386.50;;;14.50;77.35
46347;BME280;32057;47.830;19.046;2023-04-02T08:16:48;99381.06;;;14.72;77.40
46347;BME280;32057;47.830;19.046;2023-04-02T08:19:14;99380.84;;;14.87;77.63
46347;BME280;32057;47.830;19.046;2023-04-02T08:21:39;99382.03;;;14.63;76.99
46347;BME280;32057;47.830;19.046;2023-04-02T08:24:05;99384.63;;;14.65;75.03
46347;BME280;32057;47.830;19.046;2023-04-02T08:26:31;99385.16;;;14.94;74.34
46347;BME280;32057;47.830;19.046;2023-04-02T08:28:56;99382.38;;;15.05;75.55
46347;BME280;32057;47.830;19.046;2023-04-02T08:31:21;99396.16;;;15.21;73.40
46347;BME280;32057;47.830;19.046;2023-04-02T08:33:47;99395.94;;;15.35;73.32
46347;BME280;32057;47.830;19.046;2023-04-02T08:36:17;99402.75;;;15.50;74.07
46347;BME280;32057;47.830;19.046;2023-04-02T08:38:43;99402.28;;;15.22;71.17
46347;BME280;32057;47.830;19.046;2023-04-02T08:41:17;99408.41;;;15.18;73.68
46347;BME280;32057;47.830;19.046;2023-04-02T08:46:33;99408.88;;;14.81;74.42
46347;BME280;32057;47.830;19.046;2023-04-02T08:49:13;99413.53;;;14.52;74.10
46347;BME280;32057;47.830;19.046;2023-04-02T08:51:39;99422.31;;;14.48;74.50
46347;BME280;32057;47.830;19.046;2023-04-02T08:54:23;99420.75;;;14.27;78.28
46347;BME280;32057;47.830;19.046;2023-04-02T08:56:58;99422.56;;;14.19;78.56
46347;BME280;32057;47.830;19.046;2023-04-02T08:59:38;99426.16;;;14.12;78.44
46347;BME280;32057;47.830;19.046;2023-04-02T09:02:25;99432.34;;;13.97;80.86
46347;BME280;32057;47.830;19.046;2023-04-02T09:04:55;99421.84;;;14.05;78.93
46347;BME280;32057;47.830;19.046;2023-04-02T09:07:21;99430.53;;;14.08;80.63
46347;BME280;32057;47.830;19.046;2023-04-02T09:09:48;99425.91;;;14.35;83.76
46347;BME280;32057;47.830;19.046;2023-04-02T09:12:18;99427.56;;;14.44;81.64
46347;BME280;32057;47.830;19.046;2023-04-02T09:15:15;99428.47;;;14.44;81.70
46347;BME280;32057;47.830;19.046;2023-04-02T09:17:43;99428.59;;;14.32;80.75
46347;BME280;32057;47.830;19.046;2023-04-02T09:20:16;99429.50;;;14.25;82.12
46347;BME280;32057;47.830;19.046;2023-04-02T09:22:44;99434.75;;;14.25;83.48
46347;BME280;32057;47.830;19.046;2023-04-02T09:25:28;99430.25;;;14.38;83.24
46347;BME280;32057;47.830;19.046;2023-04-02T09:27:57;99438.16;;;14.34;83.59
46347;BME280;32057;47.830;19.046;2023-04-02T09:33:03;99443.19;;;14.51;82.91
46347;BME280;32057;47.830;19.046;2023-04-02T09:35:56;99443.31;;;14.39;81.98
46347;BME280;32057;47.830;19.046;2023-04-02T09:38:24;99445.06;;;14.40;81.31
46347;BME280;32057;47.830;19.046;2023-04-02T09:43:25;99446.78;;;14.44;80.90
46347;BME280;32057;47.830;19.046;2023-04-02T09:48:43;99446.97;;;14.26;81.12
46347;BME280;32057;47.830;19.046;2023-04-02T09:51:18;99450.38;;;14.34;81.93
46347;BME280;32057;47.830;19.046;2023-04-02T09:56:17;99449.94;;;14.77;82.74
46347;BME280;32057;47.830;19.046;2023-04-02T09:58:44;99448.00;;;14.96;80.52
46347;BME280;32057;47.830;19.046;2023-04-02T10:01:26;99449.75;;;14.96;78.17
46347;BME280;32057;47.830;19.046;2023-04-02T10:03:52;99452.31;;;15.02;77.96
46347;BME280;32057;47.830;19.046;2023-04-02T10:06:17;99455.56;;;15.19;77.38
46347;BME280;32057;47.830;19.046;2023-04-02T10:08:44;99456.56;;;15.12;79.74
46347;BME280;32057;47.830;19.046;2023-04-02T10:16:26;99443.31;;;15.21;80.67
46347;BME280;32057;47.830;19.046;2023-04-02T10:18:59;99447.53;;;15.34;76.72
46347;BME280;32057;47.830;19.046;2023-04-02T10:21:35;99440.53;;;15.33;76.30
46347;BME280;32057;47.830;19.046;2023-04-02T10:24:08;99438.66;;;15.43;77.83
46347;BME280;32057;47.830;19.046;2023-04-02T10:40:34;99425.25;;;16.21;71.92
46347;BME280;32057;47.830;19.046;2023-04-02T10:46:16;99440.41;;;16.05;71.41
46347;BME280;32057;47.830;19.046;2023-04-02T10:51:31;99429.47;;;16.29;72.63
46347;BME280;32057;47.830;19.046;2023-04-02T10:56:52;99425.34;;;16.16;68.09
46347;BME280;32057;47.830;19.046;2023-04-02T10:59:26;99427.00;;;16.22;68.25
46347;BME280;32057;47.830;19.046;2023-04-02T11:01:56;99424.03;;;16.42;68.14
46347;BME280;32057;47.830;19.046;2023-04-02T11:04:30;99422.53;;;16.27;68.68
46347;BME280;32057;47.830;19.046;2023-04-02T11:07:03;99429.25;;;15.92;67.38
46347;BME280;32057;47.830;19.046;2023-04-02T11:09:35;99440.91;;;15.69;68.35
46347;BME280;32057;47.830;19.046;2023-04-02T11:12:04;99428.91;;;15.54;66.90
46347;BME280;32057;47.830;19.046;2023-04-02T11:14:32;99424.50;;;15.55;68.68
46347;BME280;32057;47.830;19.046;2023-04-02T11:16:59;99421.06;;;15.51;66.74
46347;BME280;32057;47.830;19.046;2023-04-02T11:19:28;99430.03;;;15.33;67.88
46347;BME280;32057;47.830;19.046;2023-04-02T11:22:01;99433.56;;;15.34;67.83
46347;BME280;32057;47.830;19.046;2023-04-02T11:39:52;99436.47;;;15.78;63.92
46347;BME280;32057;47.830;19.046;2023-04-02T11:42:21;99428.59;;;15.78;64.39
46347;BME280;32057;47.830;19.046;2023-04-02T11:44:47;99417.06;;;15.88;65.68
46347;BME280;32057;47.830;19.046;2023-04-02T11:47:24;99423.44;;;15.68;66.77
46347;BME280;32057;47.830;19.046;2023-04-02T11:52:49;99420.44;;;15.96;65.65
46347;BME280;32057;47.830;19.046;2023-04-02T11:55:29;99419.28;;;16.12;63.41
46347;BME280;32057;47.830;19.046;2023-04-02T12:04:02;99415.38;;;16.35;63.18
46347;BME280;32057;47.830;19.046;2023-04-02T12:11:39;99408.19;;;16.46;62.19
46347;BME280;32057;47.830;19.046;2023-04-02T12:15:06;99412.59;;;16.44;61.23
46347;BME280;32057;47.830;19.046;2023-04-02T12:17:36;99411.69;;;16.45;61.15
46347;BME280;32057;47.830;19.046;2023-04-02T12:20:19;99405.41;;;16.56;60.06
46347;BME280;32057;47.830;19.046;2023-04-02T12:22:53;99409.00;;;16.48;60.61
46347;BME280;32057;47.830;19.046;2023-04-02T12:30:30;99404.59;;;16.50;62.25
46347;BME280;32057;47.830;19.046;2023-04-02T12:32:56;99393.31;;;16.45;62.03
46347;BME280;32057;47.830;19.046;2023-04-02T12:35:31;99389.63;;;16.56;62.62
46347;BME280;32057;47.830;19.046;2023-04-02T12:37:57;99390.34;;;16.64;61.04
46347;BME280;32057;47.830;19.046;2023-04-02T12:40:23;99383.44;;;16.58;61.28
46347;BME280;32057;47.830;19.046;2023-04-02T12:42:49;99384.06;;;16.71;58.71
46347;BME280;32057;47.830;19.046;2023-04-02T12:45:29;99387.63;;;16.68;57.47
46347;BME280;32057;47.830;19.046;2023-04-02T12:47:59;99384.25;;;16.62;57.29
46347;BME280;32057;47.830;19.046;2023-04-02T12:50:27;99384.94;;;16.71;58.41
46347;BME280;32057;47.830;19.046;2023-04-02T12:52:53;99390.03;;;16.79;58.60
46347;BME280;32057;47.830;19.046;2023-04-02T12:55:24;99388.25;;;16.81;57.50
46347;BME280;32057;47.830;19.046;2023-04-02T12:57:57;99381.94;;;16.91;56.27
46347;BME280;32057;47.830;19.046;2023-04-02T13:03:20;99384.50;;;16.95;57.08
46347;BME280;32057;47.830;19.046;2023-04-02T13:05:54;99374.69;;;17.03;55.90
46347;BME280;32057;47.830;19.046;2023-04-02T13:10:55;99380.25;;;16.87;57.15
46347;BME280;32057;47.830;19.046;2023-04-02T13:13:28;99366.09;;;16.95;57.08
46347;BME280;32057;47.830;19.046;2023-04-02T13:18:31;99369.44;;;17.01;57.67
46347;BME280;32057;47.830;19.046;2023-04-02T13:21:44;99365.03;;;17.03;57.26
46347;BME280;32057;47.830;19.046;2023-04-02T13:23:53;99374.91;;;16.94;55.82
46347;BME280;32057;47.830;19.046;2023-04-02T13:26:26;99376.56;;;16.98;57.79
46347;BME280;32057;47.830;19.046;2023-04-02T13:29:26;99385.91;;;17.11;55.13
46347;BME280;32057;47.830;19.046;2023-04-02T13:31:55;99394.59;;;17.15;55.37
46347;BME280;32057;47.830;19.046;2023-04-02T13:34:20;99389.69;;;16.98;55.60
46347;BME280;32057;47.830;19.046;2023-04-02T13:36:46;99386.84;;;16.17;57.04
46347;BME280;32057;47.830;19.046;2023-04-02T13:39:12;99394.94;;;16.03;59.03
46347;BME280;32057;47.830;19.046;2023-04-02T13:41:48;99415.19;;;15.96;57.56
46347;BME280;32057;47.830;19.046;2023-04-02T13:44:23;99432.66;;;14.62;60.69
46347;BME280;32057;47.830;19.046;2023-04-02T13:46:49;99430.47;;;14.13;61.78
46347;BME280;32057;47.830;19.046;2023-04-02T13:49:16;99438.63;;;13.71;63.77
46347;BME280;32057;47.830;19.046;2023-04-02T13:51:52;99448.47;;;13.32;65.58
46347;BME280;32057;47.830;19.046;2023-04-02T13:54:29;99462.44;;;13.10;68.99
46347;BME280;32057;47.830;19.046;2023-04-02T13:56:59;99456.34;;;13.09;72.92
46347;BME280;32057;47.830;19.046;2023-04-02T13:59:25;99463.41;;;12.90;77.85
46347;BME280;32057;47.830;19.046;2023-04-02T14:01:55;99458.25;;;12.63;81.98
46347;BME280;32057;47.830;19.046;2023-04-02T14:04:28;99467.88;;;12.27;94.03
46347;BME280;32057;47.830;19.046;2023-04-02T14:07:04;99475.66;;;11.90;99.26
46347;BME280;32057;47.830;19.046;2023-04-02T14:23:40;99478.22;;;11.68;100.00
46347;BME280;32057;47.830;19.046;2023-04-02T14:26:31;99473.88;;;11.80;100.00
46347;BME280;32057;47.830;19.046;2023-04-02T14:34:24;99477.34;;;11.69;100.00
46347;BME280;32057;47.830;19.046;2023-04-02T14:37:17;99486.00;;;11.65;100.00
46347;BME280;32057;47.830;19.046;2023-04-02T14:39:59;99487.75;;;11.65;100.00
46347;BME280;32057;47.830;19.046;2023-04-02T14:42:40;99485.19;;;11.72;100.00
46347;BME280;32057;47.830;19.046;2023-04-02T14:47:56;99486.06;;;11.81;100.00
46347;BME280;32057;47.830;19.046;2023-04-02T14:50:29;99479.97;;;11.77;100.00
46347;BME280;32057;47.830;19.046;2023-04-02T14:52:57;99479.03;;;11.58;100.00
46347;BME280;32057;47.830;19.046;2023-04-02T14:55:31;99481.66;;;11.50;100.00
46347;BME280;32057;47.830;19.046;2023-04-02T14:58:00;99481.66;;;11.50;100.00
46347;BME280;32057;47.830;19.046;2023-04-02T15:00:36;99484.25;;;11.58;100.00
46347;BME280;32057;47.830;19.046;2023-04-02T15:03:15;99482.56;;;11.75;100.00
46347;BME280;32057;47.830;19.046;2023-04-02T15:06:04;99482.63;;;11.91;100.00
46347;BME280;32057;47.830;19.046;2023-04-02T15:08:33;99482.63;;;12.03;100.00
46347;BME280;32057;47.830;19.046;2023-04-02T15:11:24;99480.91;;;12.18;100.00
46347;BME280;32057;47.830;19.046;2023-04-02T15:16:34;99483.50;;;12.51;100.00
46347;BME280;32057;47.830;19.046;2023-04-02T15:19:02;99481.72;;;12.67;100.00
46347;BME280;32057;47.830;19.046;2023-04-02T15:30:14;99488.63;;;12.99;100.00
46347;BME280;32057;47.830;19.046;2023-04-02T15:32:41;99486.00;;;13.01;100.00
46347;BME280;32057;47.830;19.046;2023-04-02T15:43:30;99501.66;;;12.98;100.00
46347;BME280;32057;47.830;19.046;2023-04-02T15:49:04;99505.16;;;12.97;100.00
46347;BME280;32057;47.830;19.046;2023-04-02T15:54:50;99510.38;;;12.93;100.00
46347;BME280;32057;47.830;19.046;2023-04-02T16:00:15;99516.47;;;13.05;100.00
46347;BME280;32057;47.830;19.046;2023-04-02T16:11:13;99522.56;;;13.08;100.00
46347;BME280;32057;47.830;19.046;2023-04-02T16:13:40;99518.16;;;13.13;100.00
46347;BME280;32057;47.830;19.046;2023-04-02T16:16:22;99521.66;;;13.09;100.00
46347;BME280;32057;47.830;19.046;2023-04-02T16:19:04;99521.66;;;13.09;100.00
46347;BME280;32057;47.830;19.046;2023-04-02T16:21:36;99526.03;;;13.03;100.00
46347;BME280;32057;47.830;19.046;2023-04-02T16:24:10;99530.34;;;13.21;100.00
46347;BME280;32057;47.830;19.046;2023-04-02T16:35:05;99531.28;;;12.90;88.34
46347;BME280;32057;47.830;19.046;2023-04-02T16:37:45;99540.84;;;12.90;87.74
46347;BME280;32057;47.830;19.046;2023-04-02T16:40:45;99538.25;;;12.85;87.28
46347;BME280;32057;47.830;19.046;2023-04-02T16:43:29;99539.16;;;12.84;84.59
46347;BME280;32057;47.830;19.046;2023-04-02T16:46:15;99538.28;;;12.79;82.14
46347;BME280;32057;47.830;19.046;2023-04-02T16:48:58;99546.97;;;12.72;83.20
46347;BME280;32057;47.830;19.046;2023-04-02T16:52:07;99559.16;;;12.61;85.69
46347;BME280;32057;47.830;19.046;2023-04-02T17:00:45;99560.91;;;12.40;83.50
46347;BME280;32057;47.830;19.046;2023-04-02T17:03:17;99572.19;;;12.38;85.37
46347;BME280;32057;47.830;19.046;2023-04-02T17:06:04;99580.91;;;12.35;87.17
46347;BME280;32057;47.830;19.046;2023-04-02T17:08:56;99574.81;;;12.33;92.61
46347;BME280;32057;47.830;19.046;2023-04-02T17:11:46;99593.06;;;12.36;97.58
46347;BME280;32057;47.830;19.046;2023-04-02T17:14:26;99593.94;;;12.29;100.00
46347;BME280;32057;47.830;19.046;2023-04-02T17:17:02;99602.66;;;12.32;98.39
46347;BME280;32057;47.830;19.046;2023-04-02T17:19:28;99613.06;;;12.28;96.47
46347;BME280;32057;47.830;19.046;2023-04-02T17:21:58;99613.94;;;12.21;94.73
46347;BME280;32057;47.830;19.046;2023-04-02T17:26:58;99615.66;;;12.19;94.78